sensor_id;sensor_type;location;lat;lon;timestamp;temperature;humidity
18974;DHT22;9621;48.690;9.466;2023-12-20T00:00:22;4.50;99.90
18974;DHT22;9621;48.690;9.466;2023-12-20T00:02:51;4.60;99.90
18974;DHT22;9621;48.690;9.466;2023-12-20T00:05:18;4.60;99.90
18974;DHT22;9621;48.690;9.466;2023-12-20T00:07:44;4.60;99.90
18974;DHT22;9621;48.690;9.466;2023-12-20T00:10:11;4.70;99.90
18974;DHT22;9621;48.690;9.466;2023-12-20T00:12:39;4.70;99.90
18974;DHT22;9621;48.690;9.466;2023-12-20T00:15:07;4.80;99.90
18974;DHT22;9621;48.690;9.466;2023-12-20T00:17:34;4.80;99.90
18974;DHT22;9621;48.690;9.466;2023-12-20T00:20:03;4.90;99.90
18974;DHT22;9621;48.690;9.466;2023-12-20T00:22:31;4.90;99.90
18974;DHT22;9621;48.690;9.466;2023-12-20T00:24:58;5.00;99.90
18974;DHT22;9621;48.690;9.466;2023-12-20T00:27:25;5.10;99.90
18974;DHT22;9621;48.690;9.466;2023-12-20T00:29:52;5.20;99.90
18974;DHT22;9621;48.690;9.466;2023-12-20T00:32:19;5.20;99.90
18974;DHT22;9621;48.690;9.466;2023-12-20T00:34:46;5.30;99.90
18974;DHT22;9621;48.690;9.466;2023-12-20T00:37:14;5.30;99.90
18974;DHT22;9621;48.690;9.466;2023-12-20T00:39:42;5.30;99.90
18974;DHT22;9621;48.690;9.466;2023-12-20T00:42:09;5.40;99.90
18974;DHT22;9621;48.690;9.466;2023-12-20T00:44:36;5.40;99.90
18974;DHT22;9621;48.690;9.466;2023-12-20T00:47:03;5.40;99.90
18974;DHT22;9621;48.690;9.466;2023-12-20T00:49:30;5.40;99.90
18974;DHT22;9621;48.690;9.466;2023-12-20T00:51:57;5.40;99.90
18974;DHT22;9621;48.690;9.466;2023-12-20T00:54:25;5.50;99.90
18974;DHT22;9621;48.690;9.466;2023-12-20T00:56:52;5.40;99.90
18974;DHT22;9621;48.690;9.466;2023-12-20T00:59:19;5.40;99.90
18974;DHT22;9621;48.690;9.466;2023-12-20T01:01:46;5.50;99.90
18974;DHT22;9621;48.690;9.466;2023-12-20T01:04:13;5.40;99.90
18974;DHT22;9621;48.690;9.466;2023-12-20T01:06:40;5.40;99.90
18974;DHT22;9621;48.690;9.466;2023-12-20T01:09:07;5.40;99.90
18974;DHT22;9621;48.690;9.466;2023-12-20T01:11:35;5.40;99.90
18974;DHT22;9621;48.690;9.466;2023-12-20T01:14:02;5.40;99.90
18974;DHT22;9621;48.690;9.466;2023-12-20T01:16:29;5.40;99.90
18974;DHT22;9621;48.690;9.466;2023-12-20T01:18:55;5.30;99.90
18974;DHT22;9621;48.690;9.466;2023-12-20T01:21:23;5.30;99.90
18974;DHT22;9621;48.690;9.466;2023-12-20T01:23:50;5.30;99.90
18974;DHT22;9621;48.690;9.466;2023-12-20T01:26:17;5.10;99.90
18974;DHT22;9621;48.690;9.466;2023-12-20T01:28:45;5.00;99.90
18974;DHT22;9621;48.690;9.466;2023-12-20T01:31:12;5.00;99.90
18974;DHT22;9621;48.690;9.466;2023-12-20T01:33:39;4.90;99.90
18974;DHT22;9621;48.690;9.466;2023-12-20T01:36:06;4.80;99.90
18974;DHT22;9621;48.690;9.466;2023-12-20T01:38:33;4.80;99.90
18974;DHT22;9621;48.690;9.466;2023-12-20T01:41:00;4.70;99.90
18974;DHT22;9621;48.690;9.466;2023-12-20T01:43:27;4.70;99.90
18974;DHT22;9621;48.690;9.466;2023-12-20T01:45:56;4.60;99.90
18974;DHT22;9621;48.690;9.466;2023-12-20T01:48:24;4.60;99.90
18974;DHT22;9621;48.690;9.466;2023-12-20T01:50:52;4.50;99.90
18974;DHT22;9621;48.690;9.466;2023-12-20T01:53:21;4.50;99.90
18974;DHT22;9621;48.690;9.466;2023-12-20T01:55:50;4.40;99.90
18974;DHT22;9621;48.690;9.466;2023-12-20T01:58:19;4.40;99.90
18974;DHT22;9621;48.690;9.466;2023-12-20T02:00:46;4.40;99.90
18974;DHT22;9621;48.690;9.466;2023-12-20T02:03:15;4.30;99.90
18974;DHT22;9621;48.690;9.466;2023-12-20T02:05:44;4.30;99.90
18974;DHT22;9621;48.690;9.466;2023-12-20T02:08:12;4.30;99.90
18974;DHT22;9621;48.690;9.466;2023-12-20T02:10:39;4.40;99.90
18974;DHT22;9621;48.690;9.466;2023-12-20T02:13:07;4.30;99.90
18974;DHT22;9621;48.690;9.466;2023-12-20T02:15:34;4.30;99.90
18974;DHT22;9621;48.690;9.466;2023-12-20T02:18:02;4.30;99.90
18974;DHT22;9621;48.690;9.466;2023-12-20T02:20:31;4.30;99.90
18974;DHT22;9621;48.690;9.466;2023-12-20T02:22:59;4.30;99.90
18974;DHT22;9621;48.690;9.466;2023-12-20T02:25:26;4.20;99.90
18974;DHT22;9621;48.690;9.466;2023-12-20T02:27:53;4.20;99.90
18974;DHT22;9621;48.690;9.466;2023-12-20T02:30:20;4.20;99.90
18974;DHT22;9621;48.690;9.466;2023-12-20T02:32:48;4.20;99.90
18974;DHT22;9621;48.690;9.466;2023-12-20T02:35:15;4.40;99.90
18974;DHT22;9621;48.690;9.466;2023-12-20T02:37:42;4.20;99.90
18974;DHT22;9621;48.690;9.466;2023-12-20T02:40:11;4.20;99.90
18974;DHT22;9621;48.690;9.466;2023-12-20T02:42:38;4.20;99.90
18974;DHT22;9621;48.690;9.466;2023-12-20T02:45:06;4.20;99.90
18974;DHT22;9621;48.690;9.466;2023-12-20T02:47:33;4.20;99.90
18974;DHT22;9621;48.690;9.466;2023-12-20T02:50:00;4.30;99.90
18974;DHT22;9621;48.690;9.466;2023-12-20T02:52:28;4.20;99.90
18974;DHT22;9621;48.690;9.466;2023-12-20T02:54:55;4.20;99.90
18974;DHT22;9621;48.690;9.466;2023-12-20T02:57:23;4.30;99.90
18974;DHT22;9621;48.690;9.466;2023-12-20T02:59:50;4.20;99.90
18974;DHT22;9621;48.690;9.466;2023-12-20T03:02:17;4.30;99.90
18974;DHT22;9621;48.690;9.466;2023-12-20T03:04:44;4.30;99.90
18974;DHT22;9621;48.690;9.466;2023-12-20T03:07:11;4.30;99.90
18974;DHT22;9621;48.690;9.466;2023-12-20T03:09:38;4.30;99.90
18974;DHT22;9621;48.690;9.466;2023-12-20T03:12:05;4.30;99.90
18974;DHT22;9621;48.690;9.466;2023-12-20T03:14:33;4.30;99.90
18974;DHT22;9621;48.690;9.466;2023-12-20T03:17:00;4.30;99.90
18974;DHT22;9621;48.690;9.466;2023-12-20T03:19:27;4.30;99.90
18974;DHT22;9621;48.690;9.466;2023-12-20T03:21:54;4.30;99.90
18974;DHT22;9621;48.690;9.466;2023-12-20T03:24:21;4.20;99.90
18974;DHT22;9621;48.690;9.466;2023-12-20T03:26:48;4.20;99.90
18974;DHT22;9621;48.690;9.466;2023-12-20T03:29:15;4.20;99.90
18974;DHT22;9621;48.690;9.466;2023-12-20T03:31:43;4.20;99.90
18974;DHT22;9621;48.690;9.466;2023-12-20T03:34:11;4.20;99.90
18974;DHT22;9621;48.690;9.466;2023-12-20T03:36:38;4.20;99.90
18974;DHT22;9621;48.690;9.466;2023-12-20T03:39:04;4.20;99.90
18974;DHT22;9621;48.690;9.466;2023-12-20T03:41:31;4.20;99.90
18974;DHT22;9621;48.690;9.466;2023-12-20T03:43:58;4.10;99.90
18974;DHT22;9621;48.690;9.466;2023-12-20T03:46:25;4.20;99.90
18974;DHT22;9621;48.690;9.466;2023-12-20T03:48:53;4.20;99.90
18974;DHT22;9621;48.690;9.466;2023-12-20T03:51:21;4.10;99.90
18974;DHT22;9621;48.690;9.466;2023-12-20T03:53:47;4.20;99.90
18974;DHT22;9621;48.690;9.466;2023-12-20T03:56:14;4.10;99.90
18974;DHT22;9621;48.690;9.466;2023-12-20T03:58:41;4.10;99.90
18974;DHT22;9621;48.690;9.466;2023-12-20T04:01:10;4.20;99.90
18974;DHT22;9621;48.690;9.466;2023-12-20T04:03:37;4.20;99.90
18974;DHT22;9621;48.690;9.466;2023-12-20T04:06:06;4.20;99.90
18974;DHT22;9621;48.690;9.466;2023-12-20T04:08:33;4.20;99.90
18974;DHT22;9621;48.690;9.466;2023-12-20T04:11:00;4.20;99.90
18974;DHT22;9621;48.690;9.466;2023-12-20T04:13:26;4.20;99.90
18974;DHT22;9621;48.690;9.466;2023-12-20T04:15:53;4.20;99.90
18974;DHT22;9621;48.690;9.466;2023-12-20T04:18:20;4.20;99.90
18974;DHT22;9621;48.690;9.466;2023-12-20T04:20:47;4.20;99.90
18974;DHT22;9621;48.690;9.466;2023-12-20T04:23:16;4.20;99.90
18974;DHT22;9621;48.690;9.466;2023-12-20T04:25:43;4.20;99.90
18974;DHT22;9621;48.690;9.466;2023-12-20T04:28:10;4.20;99.90
18974;DHT22;9621;48.690;9.466;2023-12-20T04:30:37;4.20;99.90
18974;DHT22;9621;48.690;9.466;2023-12-20T04:33:04;4.20;99.90
18974;DHT22;9621;48.690;9.466;2023-12-20T04:35:30;4.20;99.90
18974;DHT22;9621;48.690;9.466;2023-12-20T04:37:57;4.20;99.90
18974;DHT22;9621;48.690;9.466;2023-12-20T04:40:26;4.20;99.90
18974;DHT22;9621;48.690;9.466;2023-12-20T04:42:52;4.20;99.90
18974;DHT22;9621;48.690;9.466;2023-12-20T04:45:19;4.20;99.90
18974;DHT22;9621;48.690;9.466;2023-12-20T04:47:46;4.20;99.90
18974;DHT22;9621;48.690;9.466;2023-12-20T04:50:13;4.20;99.90
18974;DHT22;9621;48.690;9.466;2023-12-20T04:52:40;4.20;99.90
18974;DHT22;9621;48.690;9.466;2023-12-20T04:55:08;4.20;99.90
18974;DHT22;9621;48.690;9.466;2023-12-20T04:57:37;4.20;99.90
18974;DHT22;9621;48.690;9.466;2023-12-20T05:00:05;4.10;99.90
18974;DHT22;9621;48.690;9.466;2023-12-20T05:02:33;4.20;99.90
18974;DHT22;9621;48.690;9.466;2023-12-20T05:05:01;4.20;99.90
18974;DHT22;9621;48.690;9.466;2023-12-20T05:07:28;4.20;99.90
18974;DHT22;9621;48.690;9.466;2023-12-20T05:09:54;4.20;99.90
18974;DHT22;9621;48.690;9.466;2023-12-20T05:12:21;4.20;99.90
18974;DHT22;9621;48.690;9.466;2023-12-20T05:14:51;4.20;99.90
18974;DHT22;9621;48.690;9.466;2023-12-20T05:17:18;4.20;99.90
18974;DHT22;9621;48.690;9.466;2023-12-20T05:19:46;4.30;99.90
18974;DHT22;9621;48.690;9.466;2023-12-20T05:22:13;4.10;99.90
18974;DHT22;9621;48.690;9.466;2023-12-20T05:24:39;4.20;99.90
18974;DHT22;9621;48.690;9.466;2023-12-20T05:27:06;4.10;99.90
18974;DHT22;9621;48.690;9.466;2023-12-20T05:29:34;4.20;99.90
18974;DHT22;9621;48.690;9.466;2023-12-20T05:32:02;4.20;99.90
18974;DHT22;9621;48.690;9.466;2023-12-20T05:34:30;4.20;99.90
18974;DHT22;9621;48.690;9.466;2023-12-20T05:36:57;4.20;99.90
18974;DHT22;9621;48.690;9.466;2023-12-20T05:39:24;4.10;99.90
18974;DHT22;9621;48.690;9.466;2023-12-20T05:41:51;4.10;99.90
18974;DHT22;9621;48.690;9.466;2023-12-20T05:44:18;4.10;99.90
18974;DHT22;9621;48.690;9.466;2023-12-20T05:46:44;4.20;99.90
18974;DHT22;9621;48.690;9.466;2023-12-20T05:49:13;4.10;99.90
18974;DHT22;9621;48.690;9.466;2023-12-20T05:51:40;4.20;99.90
18974;DHT22;9621;48.690;9.466;2023-12-20T05:54:07;4.10;99.90
18974;DHT22;9621;48.690;9.466;2023-12-20T05:56:34;4.10;99.90
18974;DHT22;9621;48.690;9.466;2023-12-20T05:59:01;4.10;99.90
18974;DHT22;9621;48.690;9.466;2023-12-20T06:01:27;4.10;99.90
18974;DHT22;9621;48.690;9.466;2023-12-20T06:03:54;4.10;99.90
18974;DHT22;9621;48.690;9.466;2023-12-20T06:06:23;4.10;99.90
18974;DHT22;9621;48.690;9.466;2023-12-20T06:08:50;4.00;99.90
18974;DHT22;9621;48.690;9.466;2023-12-20T06:11:17;4.00;99.90
18974;DHT22;9621;48.690;9.466;2023-12-20T06:13:44;4.00;99.90
18974;DHT22;9621;48.690;9.466;2023-12-20T06:16:11;4.00;99.90
18974;DHT22;9621;48.690;9.466;2023-12-20T06:18:37;4.00;99.90
18974;DHT22;9621;48.690;9.466;2023-12-20T06:21:04;4.00;99.90
18974;DHT22;9621;48.690;9.466;2023-12-20T06:23:34;4.00;99.90
18974;DHT22;9621;48.690;9.466;2023-12-20T06:26:01;4.10;99.90
18974;DHT22;9621;48.690;9.466;2023-12-20T06:28:28;4.00;99.90
18974;DHT22;9621;48.690;9.466;2023-12-20T06:30:54;3.90;99.90
18974;DHT22;9621;48.690;9.466;2023-12-20T06:33:22;3.90;99.90
18974;DHT22;9621;48.690;9.466;2023-12-20T06:35:49;3.90;99.90
18974;DHT22;9621;48.690;9.466;2023-12-20T06:38:18;3.90;99.90
18974;DHT22;9621;48.690;9.466;2023-12-20T06:40:46;3.90;99.90
18974;DHT22;9621;48.690;9.466;2023-12-20T06:43:13;3.90;99.90
18974;DHT22;9621;48.690;9.466;2023-12-20T06:45:40;4.00;99.90
18974;DHT22;9621;48.690;9.466;2023-12-20T06:48:07;3.90;99.90
18974;DHT22;9621;48.690;9.466;2023-12-20T06:50:36;4.00;99.90
18974;DHT22;9621;48.690;9.466;2023-12-20T06:53:05;4.00;99.90
18974;DHT22;9621;48.690;9.466;2023-12-20T06:55:33;4.00;99.90
18974;DHT22;9621;48.690;9.466;2023-12-20T06:58:02;4.00;99.90
18974;DHT22;9621;48.690;9.466;2023-12-20T07:00:29;4.00;99.90
18974;DHT22;9621;48.690;9.466;2023-12-20T07:02:56;4.00;99.90
18974;DHT22;9621;48.690;9.466;2023-12-20T07:05:23;4.00;99.90
18974;DHT22;9621;48.690;9.466;2023-12-20T07:07:50;4.00;99.90
18974;DHT22;9621;48.690;9.466;2023-12-20T07:10:17;4.00;99.90
18974;DHT22;9621;48.690;9.466;2023-12-20T07:12:44;4.00;99.90
18974;DHT22;9621;48.690;9.466;2023-12-20T07:15:12;4.00;99.90
18974;DHT22;9621;48.690;9.466;2023-12-20T07:17:39;4.00;99.90
18974;DHT22;9621;48.690;9.466;2023-12-20T07:20:07;3.90;99.90
18974;DHT22;9621;48.690;9.466;2023-12-20T07:22:36;3.90;99.90
18974;DHT22;9621;48.690;9.466;2023-12-20T07:25:03;3.90;99.90
18974;DHT22;9621;48.690;9.466;2023-12-20T07:27:30;3.90;99.90
18974;DHT22;9621;48.690;9.466;2023-12-20T07:29:57;4.00;99.90
18974;DHT22;9621;48.690;9.466;2023-12-20T07:32:25;3.90;99.90
18974;DHT22;9621;48.690;9.466;2023-12-20T07:34:52;3.90;99.90
18974;DHT22;9621;48.690;9.466;2023-12-20T07:37:20;4.00;99.90
18974;DHT22;9621;48.690;9.466;2023-12-20T07:39:47;4.00;99.90
18974;DHT22;9621;48.690;9.466;2023-12-20T07:42:13;3.90;99.90
18974;DHT22;9621;48.690;9.466;2023-12-20T07:44:40;3.90;99.90
18974;DHT22;9621;48.690;9.466;2023-12-20T07:47:07;3.90;99.90
18974;DHT22;9621;48.690;9.466;2023-12-20T07:49:35;4.00;99.90
18974;DHT22;9621;48.690;9.466;2023-12-20T07:52:02;4.00;99.90
18974;DHT22;9621;48.690;9.466;2023-12-20T07:54:29;4.00;99.90
18974;DHT22;9621;48.690;9.466;2023-12-20T07:56:57;4.00;99.90
18974;DHT22;9621;48.690;9.466;2023-12-20T07:59:24;4.00;99.90
18974;DHT22;9621;48.690;9.466;2023-12-20T08:01:51;4.00;99.90
18974;DHT22;9621;48.690;9.466;2023-12-20T08:04:17;4.00;99.90
18974;DHT22;9621;48.690;9.466;2023-12-20T08:06:46;4.00;99.90
18974;DHT22;9621;48.690;9.466;2023-12-20T08:09:13;4.00;99.90
18974;DHT22;9621;48.690;9.466;2023-12-20T08:11:39;4.00;99.90
18974;DHT22;9621;48.690;9.466;2023-12-20T08:14:06;4.00;99.90
18974;DHT22;9621;48.690;9.466;2023-12-20T08:16:33;4.10;99.90
18974;DHT22;9621;48.690;9.466;2023-12-20T08:19:01;4.00;99.90
18974;DHT22;9621;48.690;9.466;2023-12-20T08:21:28;4.10;99.90
18974;DHT22;9621;48.690;9.466;2023-12-20T08:23:56;4.00;99.90
18974;DHT22;9621;48.690;9.466;2023-12-20T08:26:23;4.10;99.90
18974;DHT22;9621;48.690;9.466;2023-12-20T08:28:50;4.00;99.90
18974;DHT22;9621;48.690;9.466;2023-12-20T08:31:18;4.10;99.90
18974;DHT22;9621;48.690;9.466;2023-12-20T08:33:46;4.00;99.90
18974;DHT22;9621;48.690;9.466;2023-12-20T08:36:14;4.10;99.90
18974;DHT22;9621;48.690;9.466;2023-12-20T08:38:40;4.10;99.90
18974;DHT22;9621;48.690;9.466;2023-12-20T08:41:09;4.10;99.90
18974;DHT22;9621;48.690;9.466;2023-12-20T08:43:36;4.10;99.90
18974;DHT22;9621;48.690;9.466;2023-12-20T08:46:04;4.10;99.90
18974;DHT22;9621;48.690;9.466;2023-12-20T08:48:31;4.10;99.90
18974;DHT22;9621;48.690;9.466;2023-12-20T08:50:58;4.10;99.90
18974;DHT22;9621;48.690;9.466;2023-12-20T08:53:25;4.20;99.90
18974;DHT22;9621;48.690;9.466;2023-12-20T08:55:52;4.30;99.90
18974;DHT22;9621;48.690;9.466;2023-12-20T08:58:21;4.30;99.90
18974;DHT22;9621;48.690;9.466;2023-12-20T09:00:48;4.30;99.90
18974;DHT22;9621;48.690;9.466;2023-12-20T09:03:15;4.40;99.90
18974;DHT22;9621;48.690;9.466;2023-12-20T09:05:43;4.40;99.90
18974;DHT22;9621;48.690;9.466;2023-12-20T09:08:09;4.40;99.90
18974;DHT22;9621;48.690;9.466;2023-12-20T09:10:40;4.40;99.90
18974;DHT22;9621;48.690;9.466;2023-12-20T09:13:07;4.40;99.90
18974;DHT22;9621;48.690;9.466;2023-12-20T09:15:35;4.40;99.90
18974;DHT22;9621;48.690;9.466;2023-12-20T09:18:03;4.40;99.90
18974;DHT22;9621;48.690;9.466;2023-12-20T09:20:30;4.40;99.90
18974;DHT22;9621;48.690;9.466;2023-12-20T09:22:57;4.40;99.90
18974;DHT22;9621;48.690;9.466;2023-12-20T09:25:24;4.40;99.90
18974;DHT22;9621;48.690;9.466;2023-12-20T09:27:52;4.40;99.90
18974;DHT22;9621;48.690;9.466;2023-12-20T09:30:19;4.40;99.90
18974;DHT22;9621;48.690;9.466;2023-12-20T09:32:47;4.40;99.90
18974;DHT22;9621;48.690;9.466;2023-12-20T09:35:14;4.40;99.90
18974;DHT22;9621;48.690;9.466;2023-12-20T09:37:42;4.40;99.90
18974;DHT22;9621;48.690;9.466;2023-12-20T09:40:13;4.40;99.90
18974;DHT22;9621;48.690;9.466;2023-12-20T09:42:46;4.40;99.90
18974;DHT22;9621;48.690;9.466;2023-12-20T09:45:15;4.50;99.90
18974;DHT22;9621;48.690;9.466;2023-12-20T09:47:43;4.50;99.90
18974;DHT22;9621;48.690;9.466;2023-12-20T09:50:12;4.50;99.90
18974;DHT22;9621;48.690;9.466;2023-12-20T09:52:40;4.50;99.90
18974;DHT22;9621;48.690;9.466;2023-12-20T09:55:08;4.50;99.90
18974;DHT22;9621;48.690;9.466;2023-12-20T09:57:35;4.50;99.90
18974;DHT22;9621;48.690;9.466;2023-12-20T10:00:02;4.50;99.90
18974;DHT22;9621;48.690;9.466;2023-12-20T10:02:31;4.50;99.90
18974;DHT22;9621;48.690;9.466;2023-12-20T10:04:58;4.50;99.90
18974;DHT22;9621;48.690;9.466;2023-12-20T10:07:27;4.50;99.90
18974;DHT22;9621;48.690;9.466;2023-12-20T10:09:54;4.50;99.90
18974;DHT22;9621;48.690;9.466;2023-12-20T10:12:22;4.50;99.90
18974;DHT22;9621;48.690;9.466;2023-12-20T10:14:48;4.60;99.90
18974;DHT22;9621;48.690;9.466;2023-12-20T10:17:16;4.60;99.90
18974;DHT22;9621;48.690;9.466;2023-12-20T10:19:44;4.60;99.90
18974;DHT22;9621;48.690;9.466;2023-12-20T10:22:10;4.50;99.90
18974;DHT22;9621;48.690;9.466;2023-12-20T10:24:40;4.60;99.90
18974;DHT22;9621;48.690;9.466;2023-12-20T10:27:08;4.60;99.90
18974;DHT22;9621;48.690;9.466;2023-12-20T10:29:35;4.60;99.90
18974;DHT22;9621;48.690;9.466;2023-12-20T10:32:21;4.70;99.90
18974;DHT22;9621;48.690;9.466;2023-12-20T10:34:48;5.10;99.90
18974;DHT22;9621;48.690;9.466;2023-12-20T10:37:15;5.40;99.90
18974;DHT22;9621;48.690;9.466;2023-12-20T10:39:43;5.60;99.90
18974;DHT22;9621;48.690;9.466;2023-12-20T10:42:11;5.60;99.90
18974;DHT22;9621;48.690;9.466;2023-12-20T10:44:38;5.60;99.90
18974;DHT22;9621;48.690;9.466;2023-12-20T10:47:06;5.50;99.90
18974;DHT22;9621;48.690;9.466;2023-12-20T10:49:36;5.40;99.90
18974;DHT22;9621;48.690;9.466;2023-12-20T10:52:05;5.40;99.90
18974;DHT22;9621;48.690;9.466;2023-12-20T10:54:33;5.40;99.90
18974;DHT22;9621;48.690;9.466;2023-12-20T10:57:03;5.40;99.90
18974;DHT22;9621;48.690;9.466;2023-12-20T10:59:33;5.30;99.90
18974;DHT22;9621;48.690;9.466;2023-12-20T11:02:02;5.20;99.90
18974;DHT22;9621;48.690;9.466;2023-12-20T11:04:36;5.20;99.90
18974;DHT22;9621;48.690;9.466;2023-12-20T11:07:13;5.10;99.90
18974;DHT22;9621;48.690;9.466;2023-12-20T11:09:49;5.00;99.90
18974;DHT22;9621;48.690;9.466;2023-12-20T11:12:22;5.00;99.90
18974;DHT22;9621;48.690;9.466;2023-12-20T11:14:53;5.00;99.90
18974;DHT22;9621;48.690;9.466;2023-12-20T11:17:21;5.00;99.90
18974;DHT22;9621;48.690;9.466;2023-12-20T11:20:07;5.00;99.90
18974;DHT22;9621;48.690;9.466;2023-12-20T11:22:36;5.00;99.90
18974;DHT22;9621;48.690;9.466;2023-12-20T11:25:06;5.00;99.90
18974;DHT22;9621;48.690;9.466;2023-12-20T11:27:35;5.10;99.90
18974;DHT22;9621;48.690;9.466;2023-12-20T11:30:04;5.30;99.90
18974;DHT22;9621;48.690;9.466;2023-12-20T11:32:34;5.40;99.90
18974;DHT22;9621;48.690;9.466;2023-12-20T11:35:19;5.40;99.90
18974;DHT22;9621;48.690;9.466;2023-12-20T11:37:46;5.60;99.90
18974;DHT22;9621;48.690;9.466;2023-12-20T11:40:15;5.40;99.90
18974;DHT22;9621;48.690;9.466;2023-12-20T11:42:44;5.40;99.90
18974;DHT22;9621;48.690;9.466;2023-12-20T11:45:14;5.40;99.90
18974;DHT22;9621;48.690;9.466;2023-12-20T11:47:43;5.40;99.90
18974;DHT22;9621;48.690;9.466;2023-12-20T11:50:10;5.40;99.90
18974;DHT22;9621;48.690;9.466;2023-12-20T11:52:37;5.20;99.90
18974;DHT22;9621;48.690;9.466;2023-12-20T11:55:04;5.20;99.90
18974;DHT22;9621;48.690;9.466;2023-12-20T11:57:32;5.10;99.90
18974;DHT22;9621;48.690;9.466;2023-12-20T12:00:00;5.10;99.90
18974;DHT22;9621;48.690;9.466;2023-12-20T12:02:28;5.10;99.90
18974;DHT22;9621;48.690;9.466;2023-12-20T12:04:55;5.00;99.90
18974;DHT22;9621;48.690;9.466;2023-12-20T12:07:24;5.00;99.90
18974;DHT22;9621;48.690;9.466;2023-12-20T12:09:51;5.00;99.90
18974;DHT22;9621;48.690;9.466;2023-12-20T12:12:19;4.90;99.90
18974;DHT22;9621;48.690;9.466;2023-12-20T12:14:46;4.90;99.90
18974;DHT22;9621;48.690;9.466;2023-12-20T12:17:15;4.90;99.90
18974;DHT22;9621;48.690;9.466;2023-12-20T12:19:43;4.90;99.90
18974;DHT22;9621;48.690;9.466;2023-12-20T12:22:11;4.90;99.90
18974;DHT22;9621;48.690;9.466;2023-12-20T12:24:39;4.80;99.90
18974;DHT22;9621;48.690;9.466;2023-12-20T12:27:06;4.80;99.90
18974;DHT22;9621;48.690;9.466;2023-12-20T12:29:33;4.80;99.90
18974;DHT22;9621;48.690;9.466;2023-12-20T12:32:00;4.80;99.90
18974;DHT22;9621;48.690;9.466;2023-12-20T12:34:29;4.80;99.90
18974;DHT22;9621;48.690;9.466;2023-12-20T12:36:56;4.80;99.90
18974;DHT22;9621;48.690;9.466;2023-12-20T12:39:24;4.80;99.90
18974;DHT22;9621;48.690;9.466;2023-12-20T12:41:51;4.80;99.90
18974;DHT22;9621;48.690;9.466;2023-12-20T12:44:18;4.90;99.90
18974;DHT22;9621;48.690;9.466;2023-12-20T12:46:46;4.80;99.90
18974;DHT22;9621;48.690;9.466;2023-12-20T12:49:15;4.80;99.90
18974;DHT22;9621;48.690;9.466;2023-12-20T12:51:44;4.80;99.90
18974;DHT22;9621;48.690;9.466;2023-12-20T12:54:11;4.70;99.90
18974;DHT22;9621;48.690;9.466;2023-12-20T12:56:39;4.70;99.90
18974;DHT22;9621;48.690;9.466;2023-12-20T12:59:06;4.70;99.90
18974;DHT22;9621;48.690;9.466;2023-12-20T13:01:33;4.80;99.90
18974;DHT22;9621;48.690;9.466;2023-12-20T13:04:00;4.80;99.90
18974;DHT22;9621;48.690;9.466;2023-12-20T13:06:28;4.70;99.90
18974;DHT22;9621;48.690;9.466;2023-12-20T13:08:57;4.80;99.90
18974;DHT22;9621;48.690;9.466;2023-12-20T13:11:23;4.80;99.90
18974;DHT22;9621;48.690;9.466;2023-12-20T13:13:50;4.80;99.90
18974;DHT22;9621;48.690;9.466;2023-12-20T13:16:17;4.90;99.90
18974;DHT22;9621;48.690;9.466;2023-12-20T13:18:44;4.90;99.90
18974;DHT22;9621;48.690;9.466;2023-12-20T13:21:11;4.90;99.90
18974;DHT22;9621;48.690;9.466;2023-12-20T13:23:38;5.00;99.90
18974;DHT22;9621;48.690;9.466;2023-12-20T13:26:07;4.90;99.90
18974;DHT22;9621;48.690;9.466;2023-12-20T13:28:34;4.90;99.90
18974;DHT22;9621;48.690;9.466;2023-12-20T13:31:00;4.90;99.90
18974;DHT22;9621;48.690;9.466;2023-12-20T13:33:28;4.90;99.90
18974;DHT22;9621;48.690;9.466;2023-12-20T13:35:55;4.90;99.90
18974;DHT22;9621;48.690;9.466;2023-12-20T13:38:23;4.90;99.90
18974;DHT22;9621;48.690;9.466;2023-12-20T13:40:50;4.90;99.90
18974;DHT22;9621;48.690;9.466;2023-12-20T13:43:19;4.90;99.90
18974;DHT22;9621;48.690;9.466;2023-12-20T13:45:47;4.80;99.90
18974;DHT22;9621;48.690;9.466;2023-12-20T13:48:14;4.90;99.90
18974;DHT22;9621;48.690;9.466;2023-12-20T13:50:41;4.80;99.90
18974;DHT22;9621;48.690;9.466;2023-12-20T13:53:08;4.80;99.90
18974;DHT22;9621;48.690;9.466;2023-12-20T13:55:35;4.80;99.90
18974;DHT22;9621;48.690;9.466;2023-12-20T13:58:01;4.80;99.90
18974;DHT22;9621;48.690;9.466;2023-12-20T14:00:30;4.80;99.90
18974;DHT22;9621;48.690;9.466;2023-12-20T14:02:57;4.80;99.90
18974;DHT22;9621;48.690;9.466;2023-12-20T14:05:24;4.80;99.90
18974;DHT22;9621;48.690;9.466;2023-12-20T14:07:52;4.90;99.90
18974;DHT22;9621;48.690;9.466;2023-12-20T14:10:19;4.80;99.90
18974;DHT22;9621;48.690;9.466;2023-12-20T14:12:46;4.80;99.90
18974;DHT22;9621;48.690;9.466;2023-12-20T14:15:13;4.80;99.90
18974;DHT22;9621;48.690;9.466;2023-12-20T14:17:41;4.90;99.90
18974;DHT22;9621;48.690;9.466;2023-12-20T14:20:08;4.80;99.90
18974;DHT22;9621;48.690;9.466;2023-12-20T14:22:38;4.80;99.90
18974;DHT22;9621;48.690;9.466;2023-12-20T14:25:10;4.90;99.90
18974;DHT22;9621;48.690;9.466;2023-12-20T14:27:37;4.70;99.90
18974;DHT22;9621;48.690;9.466;2023-12-20T14:30:05;4.70;99.90
18974;DHT22;9621;48.690;9.466;2023-12-20T14:32:35;4.70;99.90
18974;DHT22;9621;48.690;9.466;2023-12-20T14:35:06;4.70;99.90
18974;DHT22;9621;48.690;9.466;2023-12-20T14:37:34;4.70;99.90
18974;DHT22;9621;48.690;9.466;2023-12-20T14:40:01;4.70;99.90
18974;DHT22;9621;48.690;9.466;2023-12-20T14:42:28;4.70;99.90
18974;DHT22;9621;48.690;9.466;2023-12-20T14:44:54;4.70;99.90
18974;DHT22;9621;48.690;9.466;2023-12-20T14:47:21;4.60;99.90
18974;DHT22;9621;48.690;9.466;2023-12-20T14:49:48;4.60;99.90
18974;DHT22;9621;48.690;9.466;2023-12-20T14:52:17;4.60;99.90
18974;DHT22;9621;48.690;9.466;2023-12-20T14:54:44;4.60;99.90
18974;DHT22;9621;48.690;9.466;2023-12-20T14:57:11;4.60;99.90
18974;DHT22;9621;48.690;9.466;2023-12-20T14:59:38;4.60;99.90
18974;DHT22;9621;48.690;9.466;2023-12-20T15:02:05;4.60;99.90
18974;DHT22;9621;48.690;9.466;2023-12-20T15:04:32;4.60;99.90
18974;DHT22;9621;48.690;9.466;2023-12-20T15:07:00;4.60;99.90
18974;DHT22;9621;48.690;9.466;2023-12-20T15:09:28;4.60;99.90
18974;DHT22;9621;48.690;9.466;2023-12-20T15:11:55;4.60;99.90
18974;DHT22;9621;48.690;9.466;2023-12-20T15:14:23;4.60;99.90
18974;DHT22;9621;48.690;9.466;2023-12-20T15:16:50;4.70;99.90
18974;DHT22;9621;48.690;9.466;2023-12-20T15:19:17;4.60;99.90
18974;DHT22;9621;48.690;9.466;2023-12-20T15:21:44;4.60;99.90
18974;DHT22;9621;48.690;9.466;2023-12-20T15:24:11;4.70;99.90
18974;DHT22;9621;48.690;9.466;2023-12-20T15:26:43;4.60;99.90
18974;DHT22;9621;48.690;9.466;2023-12-20T15:29:10;4.60;99.90
18974;DHT22;9621;48.690;9.466;2023-12-20T15:31:42;4.50;99.90
18974;DHT22;9621;48.690;9.466;2023-12-20T15:34:09;4.50;99.90
18974;DHT22;9621;48.690;9.466;2023-12-20T15:36:36;4.50;99.90
18974;DHT22;9621;48.690;9.466;2023-12-20T15:39:04;4.40;99.90
18974;DHT22;9621;48.690;9.466;2023-12-20T15:41:31;4.40;99.90
18974;DHT22;9621;48.690;9.466;2023-12-20T15:44:00;4.40;99.90
18974;DHT22;9621;48.690;9.466;2023-12-20T15:46:27;4.30;99.90
18974;DHT22;9621;48.690;9.466;2023-12-20T15:48:53;4.30;99.90
18974;DHT22;9621;48.690;9.466;2023-12-20T15:51:21;4.20;99.90
18974;DHT22;9621;48.690;9.466;2023-12-20T15:53:49;4.20;99.90
18974;DHT22;9621;48.690;9.466;2023-12-20T15:56:16;4.20;99.90
18974;DHT22;9621;48.690;9.466;2023-12-20T15:58:43;4.10;99.90
18974;DHT22;9621;48.690;9.466;2023-12-20T16:01:11;4.20;99.90
18974;DHT22;9621;48.690;9.466;2023-12-20T16:03:38;4.10;99.90